Amelia Island, Florida
Current Conditions -  °F | °C
As of 6:55 PM on Wednesday 22 Oct 2014 (Local Time) from KFHB Reporting Station
Clear Clear  
Wind Chill: 70°   Ceiling: Unl
Heat Index: 70°   Visibility: 10mi
Dew Point: 54°   Wind: 5mph
Humidity: 56%   Direction: 30°NNE
Pressure: 30.01"   Gusts: NA
Location:  30.6056°N, 81.5268°W
Report Text: KFHB 222255Z AUTO 03004KT 10SM CLR 21/12 A3001 RMK AO1
Loading
Personal Weather Stations






























Interactive Weather Map New forecast layout! Learn more

10-Day Weather Forecast

Advertisements
Track Severe Weather on mobile